createdAt,value
2024-02-26T00:02:42.645Z,27.44
2024-02-26T00:05:30.234Z,27.39
2024-02-26T00:08:17.957Z,27.32
2024-02-26T00:11:05.616Z,27.18
2024-02-26T00:13:53.396Z,27.31
2024-02-26T00:16:41.605Z,27.25
2024-02-26T00:19:29.553Z,27.25
2024-02-26T00:22:17.288Z,27.17
2024-02-26T00:25:05.726Z,27.18
2024-02-26T00:27:53.263Z,27.28
2024-02-26T00:30:40.985Z,27.28
2024-02-26T00:33:28.999Z,27.18
2024-02-26T00:36:16.819Z,27.18
2024-02-26T00:39:04.840Z,27.27
2024-02-26T00:41:53.067Z,27.40
2024-02-26T00:44:40.997Z,27.39
2024-02-26T00:47:28.735Z,27.34
2024-02-26T00:50:16.574Z,27.38
2024-02-26T00:53:04.252Z,27.22
2024-02-26T00:55:52.224Z,27.16
2024-02-26T00:58:39.973Z,27.20
2024-02-26T01:01:27.565Z,27.19
2024-02-26T01:04:15.229Z,27.24
2024-02-26T01:07:03.713Z,27.08
2024-02-26T01:09:51.534Z,27.27
2024-02-26T01:12:39.272Z,27.28
2024-02-26T01:15:28.043Z,27.29
2024-02-26T01:18:15.906Z,27.36
2024-02-26T01:21:05.746Z,27.30
2024-02-26T01:23:53.450Z,27.26
2024-02-26T01:26:41.121Z,27.24
2024-02-26T01:29:28.768Z,27.35
2024-02-26T01:32:16.433Z,27.18
2024-02-26T01:35:04.655Z,27.18
2024-02-26T01:37:52.476Z,27.23
2024-02-26T01:40:40.116Z,27.20
2024-02-26T01:43:27.797Z,27.33
2024-02-26T01:46:15.890Z,27.14
2024-02-26T01:49:04.560Z,27.20
2024-02-26T01:51:52.322Z,27.07
2024-02-26T01:54:41.625Z,27.11
2024-02-26T01:57:29.664Z,27.13
2024-02-26T02:00:18.031Z,27.16
2024-02-26T02:03:06.063Z,27.18
2024-02-26T02:05:53.854Z,27.23
2024-02-26T02:08:41.627Z,27.06
2024-02-26T02:11:29.452Z,27.24
2024-02-26T02:14:17.115Z,27.23
2024-02-26T02:17:04.875Z,27.07
2024-02-26T02:19:52.583Z,27.17
2024-02-26T02:22:40.392Z,27.31
2024-02-26T02:25:28.056Z,27.24
2024-02-26T02:28:15.743Z,27.22
2024-02-26T02:31:04.975Z,27.10
2024-02-26T02:33:52.792Z,26.96
2024-02-26T02:36:50.790Z,27.04
2024-02-26T02:39:38.677Z,27.10
2024-02-26T02:42:26.307Z,27.10
2024-02-26T02:45:14.019Z,26.88
2024-02-26T02:48:01.779Z,27.02
2024-02-26T02:50:49.857Z,26.99
2024-02-26T02:53:37.568Z,26.94
2024-02-26T02:56:25.449Z,27.05
2024-02-26T02:59:13.094Z,26.96
2024-02-26T03:02:00.709Z,26.96
2024-02-26T03:04:48.409Z,27.04
2024-02-26T03:07:36.150Z,26.92
2024-02-26T03:10:23.990Z,27.10
2024-02-26T03:13:13.071Z,27.06
2024-02-26T03:16:05.452Z,26.92
2024-02-26T03:18:53.243Z,26.89
2024-02-26T03:21:41.026Z,26.78
2024-02-26T03:24:28.755Z,26.83
2024-02-26T03:27:16.802Z,26.87
2024-02-26T03:30:05.154Z,26.87
2024-02-26T03:32:53.082Z,26.66
2024-02-26T03:35:40.926Z,26.54
2024-02-26T03:38:28.529Z,26.61
2024-02-26T03:41:16.645Z,26.81
2024-02-26T03:44:04.586Z,26.69
2024-02-26T03:46:52.382Z,26.65
2024-02-26T03:49:40.056Z,26.64
2024-02-26T03:52:27.914Z,26.76
2024-02-26T03:55:15.499Z,26.76
2024-02-26T03:58:04.415Z,26.59
2024-02-26T04:00:52.048Z,26.72
2024-02-26T04:03:39.838Z,26.81
2024-02-26T04:06:27.706Z,26.66
2024-02-26T04:09:15.999Z,26.83
2024-02-26T04:12:04.075Z,26.61
2024-02-26T04:14:51.766Z,26.53
2024-02-26T04:17:40.230Z,26.58
2024-02-26T04:20:27.954Z,26.70
2024-02-26T04:23:15.697Z,26.59
2024-02-26T04:26:03.597Z,26.40
2024-02-26T04:28:51.209Z,26.42
2024-02-26T04:31:39.301Z,26.31
2024-02-26T04:34:27.016Z,26.43
2024-02-26T04:37:14.709Z,26.51
2024-02-26T04:40:02.981Z,26.48
2024-02-26T04:42:50.875Z,26.34
2024-02-26T04:45:38.467Z,26.21
2024-02-26T04:48:26.246Z,26.22
2024-02-26T04:51:14.222Z,26.12
2024-02-26T04:54:01.882Z,26.07
2024-02-26T04:56:49.724Z,26.08
2024-02-26T04:59:37.428Z,26.12
2024-02-26T05:02:25.642Z,26.21
2024-02-26T05:05:14.153Z,26.01
2024-02-26T05:08:04.067Z,26.21
2024-02-26T05:10:51.826Z,26.28
2024-02-26T05:13:39.473Z,26.33
2024-02-26T05:16:28.447Z,26.26
2024-02-26T05:19:16.394Z,26.26
2024-02-26T05:22:04.066Z,26.29
2024-02-26T05:24:52.787Z,26.32
2024-02-26T05:27:40.445Z,26.11
2024-02-26T05:30:29.703Z,26.33
2024-02-26T05:33:18.828Z,26.29
2024-02-26T05:36:07.487Z,26.17
2024-02-26T05:38:55.081Z,26.23
2024-02-26T05:41:44.393Z,26.25
2024-02-26T05:44:32.152Z,26.20
2024-02-26T05:47:20.143Z,26.32
2024-02-26T05:50:08.067Z,26.26
2024-02-26T05:52:55.708Z,26.19
2024-02-26T05:55:43.385Z,26.15
2024-02-26T05:58:31.032Z,26.29
2024-02-26T06:01:18.991Z,26.35
2024-02-26T06:04:06.857Z,26.23
2024-02-26T06:06:54.534Z,26.25
2024-02-26T06:09:42.450Z,26.31
2024-02-26T06:12:32.000Z,26.32
2024-02-26T06:15:19.621Z,26.28
2024-02-26T06:18:07.280Z,26.49
2024-02-26T06:20:55.368Z,26.54
2024-02-26T06:23:43.103Z,26.33
2024-02-26T06:26:30.901Z,26.31
2024-02-26T06:29:18.600Z,26.34
2024-02-26T06:32:06.455Z,26.42
2024-02-26T06:34:54.157Z,26.31
2024-02-26T06:37:41.959Z,26.42
2024-02-26T06:40:29.581Z,26.33
2024-02-26T06:43:17.212Z,26.34
2024-02-26T06:46:04.867Z,26.51
2024-02-26T06:48:55.516Z,26.32
2024-02-26T06:51:43.718Z,26.44
2024-02-26T06:54:31.344Z,26.53
2024-02-26T06:57:19.026Z,26.61
2024-02-26T07:00:07.017Z,26.72
2024-02-26T07:02:54.803Z,26.68
2024-02-26T07:05:42.605Z,26.51
2024-02-26T07:08:30.416Z,26.57
2024-02-26T07:11:18.219Z,26.52
2024-02-26T07:14:05.874Z,26.63
2024-02-26T07:16:53.665Z,26.56
2024-02-26T07:19:41.396Z,26.52
2024-02-26T07:22:29.224Z,26.53
2024-02-26T07:25:17.442Z,26.64
2024-02-26T07:28:05.163Z,26.64
2024-02-26T07:30:52.864Z,26.56
2024-02-26T07:33:40.839Z,26.67
2024-02-26T07:36:28.693Z,26.72
2024-02-26T07:39:16.636Z,26.78
2024-02-26T07:42:04.541Z,26.94
2024-02-26T07:44:52.348Z,26.71
2024-02-26T07:47:42.297Z,26.85
2024-02-26T07:50:30.036Z,26.90
2024-02-26T07:53:17.646Z,26.62
2024-02-26T07:56:05.367Z,26.62
2024-02-26T07:58:53.036Z,26.69
2024-02-26T08:01:42.939Z,26.74
2024-02-26T08:04:31.290Z,26.85
2024-02-26T08:07:19.286Z,26.76
2024-02-26T08:10:08.051Z,26.63
2024-02-26T08:12:55.777Z,26.65
2024-02-26T08:15:45.366Z,26.65
2024-02-26T08:18:33.474Z,26.58
2024-02-26T08:21:21.460Z,26.50
2024-02-26T08:24:09.191Z,26.63
2024-02-26T08:26:56.875Z,26.66
2024-02-26T08:29:44.644Z,26.62
2024-02-26T08:32:32.376Z,26.66
2024-02-26T08:35:20.610Z,26.67
2024-02-26T08:38:08.466Z,26.70
2024-02-26T08:40:56.200Z,26.56
2024-02-26T08:43:44.353Z,26.70
2024-02-26T08:46:32.100Z,26.68
2024-02-26T08:49:19.880Z,26.75
2024-02-26T08:52:07.667Z,26.63
2024-02-26T08:54:55.541Z,26.59
2024-02-26T08:57:43.302Z,26.54
2024-02-26T09:00:32.370Z,26.60
2024-02-26T09:03:20.142Z,26.64
2024-02-26T09:06:11.111Z,26.72
2024-02-26T09:09:01.665Z,26.70
2024-02-26T09:11:53.111Z,26.74
2024-02-26T09:14:40.871Z,26.75
2024-02-26T09:17:28.468Z,26.66
2024-02-26T09:20:16.283Z,26.59
2024-02-26T09:23:04.910Z,26.59
2024-02-26T09:25:52.727Z,26.78
2024-02-26T09:28:40.418Z,26.75
2024-02-26T09:31:28.033Z,26.83
2024-02-26T09:34:16.243Z,26.74
2024-02-26T09:37:12.093Z,26.89
2024-02-26T09:40:04.282Z,26.74
2024-02-26T09:42:54.509Z,26.89
2024-02-26T09:45:42.483Z,26.78
2024-02-26T09:48:30.884Z,26.85
2024-02-26T09:51:19.789Z,27.21
2024-02-26T09:54:10.424Z,26.99
2024-02-26T09:57:04.524Z,26.82
2024-02-26T09:59:54.695Z,27.02
2024-02-26T10:02:43.047Z,27.03
2024-02-26T10:05:31.445Z,27.00
2024-02-26T10:08:19.946Z,26.84
2024-02-26T10:11:11.390Z,26.77
2024-02-26T10:13:59.144Z,26.78
2024-02-26T10:16:46.812Z,26.84
2024-02-26T10:19:37.381Z,26.76
2024-02-26T10:22:28.682Z,26.82
2024-02-26T10:25:16.320Z,26.83
2024-02-26T10:28:04.059Z,26.85
2024-02-26T10:30:52.703Z,26.82
2024-02-26T10:33:43.445Z,26.91
2024-02-26T10:36:43.835Z,26.99
2024-02-26T10:39:37.346Z,27.02
2024-02-26T10:42:26.704Z,27.09
2024-02-26T10:45:14.574Z,27.08
2024-02-26T10:48:02.405Z,27.12
2024-02-26T10:50:51.593Z,26.95
2024-02-26T10:53:39.750Z,27.04
2024-02-26T10:56:31.168Z,27.01
2024-02-26T10:59:22.645Z,27.10
2024-02-26T11:02:11.347Z,27.02
2024-02-26T11:04:59.894Z,27.10
2024-02-26T11:07:48.625Z,27.14
2024-02-26T11:10:37.255Z,27.07
2024-02-26T11:13:28.013Z,27.23
2024-02-26T11:16:17.589Z,27.29
2024-02-26T11:19:06.088Z,27.38
2024-02-26T11:21:53.805Z,27.27
2024-02-26T11:24:43.903Z,27.34
2024-02-26T11:27:34.438Z,27.44
2024-02-26T11:30:23.153Z,27.24
2024-02-26T11:33:11.469Z,27.33
2024-02-26T11:35:59.715Z,27.20
2024-02-26T11:38:49.929Z,27.26
2024-02-26T11:41:38.432Z,27.33
2024-02-26T11:44:32.317Z,27.25
2024-02-26T11:47:20.910Z,27.14
2024-02-26T11:50:29.305Z,27.27
2024-02-26T11:53:27.420Z,27.32
2024-02-26T11:56:21.717Z,27.30
2024-02-26T11:59:14.233Z,27.17
2024-02-26T12:02:03.241Z,27.32
2024-02-26T12:04:51.194Z,27.18
2024-02-26T12:07:42.751Z,27.25
2024-02-26T12:10:37.447Z,27.26
2024-02-26T12:13:30.842Z,27.26
2024-02-26T12:16:36.000Z,27.29
2024-02-26T12:19:24.227Z,27.14
2024-02-26T12:22:13.949Z,27.18
2024-02-26T12:25:02.974Z,27.10
2024-02-26T12:27:50.681Z,27.11
2024-02-26T12:30:38.335Z,27.15
2024-02-26T12:33:27.771Z,27.29
2024-02-26T12:36:15.761Z,27.34
2024-02-26T12:39:03.878Z,27.23
2024-02-26T12:41:51.741Z,27.21
2024-02-26T12:44:39.474Z,27.29
2024-02-26T12:47:27.161Z,27.18
2024-02-26T12:50:15.134Z,27.11
2024-02-26T12:53:02.843Z,27.21
2024-02-26T12:55:50.750Z,27.19
2024-02-26T12:58:39.534Z,27.16
2024-02-26T13:01:27.818Z,27.28
2024-02-26T13:04:15.570Z,27.17
2024-02-26T13:07:06.148Z,27.01
2024-02-26T13:09:54.192Z,27.16
2024-02-26T13:12:45.441Z,27.10
2024-02-26T13:15:33.882Z,27.24
2024-02-26T13:18:21.974Z,27.23
2024-02-26T13:21:13.954Z,27.37
2024-02-26T13:24:01.593Z,27.16
2024-02-26T13:26:56.320Z,27.15
2024-02-26T13:29:44.612Z,27.27
2024-02-26T13:32:36.722Z,27.26
2024-02-26T13:35:24.376Z,27.19
2024-02-26T13:38:13.353Z,27.29
2024-02-26T13:41:01.462Z,27.26
2024-02-26T13:43:49.978Z,27.36
2024-02-26T13:46:37.664Z,27.28
2024-02-26T13:49:25.387Z,27.28
2024-02-26T13:52:13.084Z,27.29
2024-02-26T13:55:00.897Z,27.26
2024-02-26T13:57:49.349Z,27.34
2024-02-26T14:00:37.058Z,27.67
2024-02-26T14:03:24.800Z,27.38
2024-02-26T14:06:12.837Z,27.27
2024-02-26T14:09:00.764Z,27.30
2024-02-26T14:11:48.933Z,27.25
2024-02-26T14:14:39.707Z,27.23
2024-02-26T14:17:27.892Z,27.26
2024-02-26T14:20:15.557Z,27.38
2024-02-26T14:23:03.305Z,27.41
2024-02-26T14:25:50.878Z,27.34
2024-02-26T14:28:39.190Z,27.26
2024-02-26T14:31:26.960Z,27.33
2024-02-26T14:34:14.847Z,27.21
2024-02-26T14:37:02.968Z,27.19
2024-02-26T14:39:52.943Z,27.39
2024-02-26T14:42:41.140Z,27.34
2024-02-26T14:45:28.773Z,27.27
2024-02-26T14:48:16.636Z,27.25
2024-02-26T14:51:06.448Z,27.37
2024-02-26T14:53:54.514Z,27.30
2024-02-26T14:56:42.178Z,27.23
2024-02-26T14:59:29.872Z,27.30
2024-02-26T15:02:18.280Z,27.33
2024-02-26T15:05:06.327Z,27.36
2024-02-26T15:07:54.026Z,27.37
2024-02-26T15:10:48.439Z,27.31
2024-02-26T15:13:37.100Z,27.27
2024-02-26T15:16:24.763Z,27.39
2024-02-26T15:19:17.177Z,27.51
2024-02-26T15:22:05.561Z,27.72
2024-02-26T15:24:53.545Z,27.63
2024-02-26T15:27:41.188Z,27.45
2024-02-26T15:30:30.725Z,27.49
2024-02-26T15:33:19.540Z,27.57
2024-02-26T15:36:11.354Z,27.58
2024-02-26T15:38:59.020Z,27.48
2024-02-26T15:41:46.740Z,27.46
2024-02-26T15:44:34.610Z,27.67
2024-02-26T15:47:22.865Z,27.65
2024-02-26T15:50:12.151Z,27.62
2024-02-26T15:52:59.865Z,27.70
2024-02-26T15:55:47.727Z,27.73
2024-02-26T15:58:35.276Z,27.62
2024-02-26T16:01:25.052Z,27.70
2024-02-26T16:04:14.205Z,27.61
2024-02-26T16:07:05.782Z,27.83
2024-02-26T16:09:56.286Z,27.64
2024-02-26T16:12:53.522Z,27.68
2024-02-26T16:15:46.326Z,27.75
2024-02-26T16:18:35.075Z,27.73
2024-02-26T16:21:22.892Z,27.71
2024-02-26T16:24:10.737Z,27.69
2024-02-26T16:26:58.390Z,27.66
2024-02-26T16:29:46.240Z,27.69
2024-02-26T16:32:33.960Z,27.65
2024-02-26T16:35:22.267Z,27.59
2024-02-26T16:38:09.884Z,27.87
2024-02-26T16:40:57.686Z,27.71
2024-02-26T16:43:45.731Z,27.67
2024-02-26T16:46:34.350Z,27.69
2024-02-26T16:49:22.284Z,27.79
2024-02-26T16:52:10.040Z,27.86
2024-02-26T16:54:57.720Z,27.85
2024-02-26T16:57:45.388Z,27.88
2024-02-26T17:00:33.240Z,27.95
2024-02-26T17:03:20.954Z,27.88
2024-02-26T17:06:08.834Z,27.90
2024-02-26T17:08:56.984Z,27.83
2024-02-26T17:11:45.585Z,27.75
2024-02-26T17:14:33.456Z,27.88
2024-02-26T17:17:21.304Z,27.83
2024-02-26T17:20:09.358Z,27.88
2024-02-26T17:22:57.055Z,27.94
2024-02-26T17:25:44.838Z,28.01
2024-02-26T17:28:32.595Z,27.99
2024-02-26T17:31:21.069Z,27.82
2024-02-26T17:34:10.235Z,27.91
2024-02-26T17:36:58.691Z,27.88
2024-02-26T17:39:46.386Z,27.72
2024-02-26T17:42:34.943Z,27.80
2024-02-26T17:45:23.689Z,27.72
2024-02-26T17:48:11.994Z,27.75
2024-02-26T17:50:59.798Z,27.83
2024-02-26T17:53:47.450Z,27.93
2024-02-26T17:56:35.119Z,27.97
2024-02-26T17:59:22.947Z,27.78
2024-02-26T18:02:10.753Z,27.91
2024-02-26T18:04:58.540Z,27.85
2024-02-26T18:07:46.099Z,27.75
2024-02-26T18:10:33.804Z,27.87
2024-02-26T18:13:21.454Z,27.79
2024-02-26T18:16:09.113Z,27.90
2024-02-26T18:18:56.898Z,27.75
2024-02-26T18:21:44.763Z,27.93
2024-02-26T18:24:32.634Z,27.85
2024-02-26T18:27:20.369Z,27.75
2024-02-26T18:30:08.847Z,27.78
2024-02-26T18:32:56.695Z,27.75
2024-02-26T18:35:44.538Z,27.69
2024-02-26T18:38:32.347Z,27.72
2024-02-26T18:41:24.158Z,27.77
2024-02-26T18:44:12.146Z,27.73
2024-02-26T18:46:59.996Z,27.80
2024-02-26T18:49:47.725Z,27.87
2024-02-26T18:52:35.647Z,27.71
2024-02-26T18:55:23.479Z,27.74
2024-02-26T18:58:11.395Z,27.77
2024-02-26T19:00:59.481Z,27.73
2024-02-26T19:03:47.844Z,27.62
2024-02-26T19:06:37.307Z,27.59
2024-02-26T19:09:25.124Z,27.67
2024-02-26T19:12:12.905Z,27.65
2024-02-26T19:15:00.799Z,27.66
2024-02-26T19:17:48.952Z,27.66
2024-02-26T19:20:36.809Z,27.74
2024-02-26T19:23:24.589Z,27.64
2024-02-26T19:26:12.185Z,27.61
2024-02-26T19:29:00.036Z,27.60
2024-02-26T19:31:47.657Z,27.60
2024-02-26T19:34:35.477Z,27.56
2024-02-26T19:37:23.113Z,27.65
2024-02-26T19:40:12.217Z,27.57
2024-02-26T19:42:59.852Z,27.68
2024-02-26T19:45:47.611Z,27.58
2024-02-26T19:48:36.038Z,27.65
2024-02-26T19:51:24.129Z,27.64
2024-02-26T19:54:12.292Z,27.56
2024-02-26T19:56:59.964Z,27.59
2024-02-26T19:59:47.620Z,27.56
2024-02-26T20:02:37.712Z,27.65
2024-02-26T20:05:25.558Z,27.61
2024-02-26T20:08:13.405Z,27.57
2024-02-26T20:11:01.040Z,27.61
2024-02-26T20:13:48.777Z,27.44
2024-02-26T20:16:36.519Z,27.41
2024-02-26T20:19:24.328Z,27.44
2024-02-26T20:22:14.668Z,27.58
2024-02-26T20:25:02.412Z,27.62
2024-02-26T20:27:50.082Z,27.58
2024-02-26T20:30:37.738Z,27.62
2024-02-26T20:33:25.639Z,27.64
2024-02-26T20:36:13.588Z,27.76
2024-02-26T20:39:01.472Z,27.66
2024-02-26T20:41:49.234Z,27.59
2024-02-26T20:44:37.463Z,27.53
2024-02-26T20:47:25.296Z,27.59
2024-02-26T20:50:12.962Z,27.61
2024-02-26T20:53:00.869Z,27.62
2024-02-26T20:55:49.469Z,27.50
2024-02-26T20:58:37.492Z,27.58
2024-02-26T21:01:25.263Z,27.52
2024-02-26T21:04:13.078Z,27.63
2024-02-26T21:07:00.989Z,27.81
2024-02-26T21:09:48.746Z,27.63
2024-02-26T21:12:36.992Z,27.60
2024-02-26T21:15:24.962Z,27.55
2024-02-26T21:18:13.362Z,27.53
2024-02-26T21:21:01.356Z,27.50
2024-02-26T21:23:48.980Z,27.52
2024-02-26T21:26:36.984Z,27.55
2024-02-26T21:29:24.620Z,27.64
2024-02-26T21:32:12.249Z,27.69
2024-02-26T21:34:59.921Z,27.57
2024-02-26T21:37:47.703Z,27.51
2024-02-26T21:40:35.463Z,27.48
2024-02-26T21:43:24.569Z,27.37
2024-02-26T21:46:12.250Z,27.57
2024-02-26T21:48:59.906Z,27.56
2024-02-26T21:51:48.612Z,27.45
2024-02-26T21:54:36.992Z,27.35
2024-02-26T21:57:24.743Z,27.60
2024-02-26T22:00:12.707Z,27.61
2024-02-26T22:03:01.024Z,27.74
2024-02-26T22:05:48.934Z,27.76
2024-02-26T22:08:37.006Z,27.66
2024-02-26T22:11:24.690Z,27.73
2024-02-26T22:14:12.287Z,27.54
2024-02-26T22:16:59.876Z,27.55
2024-02-26T22:19:48.151Z,27.35
2024-02-26T22:22:36.285Z,27.39
2024-02-26T22:25:24.158Z,27.52
2024-02-26T22:28:11.823Z,27.59
2024-02-26T22:30:59.407Z,27.70
2024-02-26T22:33:47.212Z,27.66
2024-02-26T22:36:38.306Z,27.69
2024-02-26T22:39:26.308Z,27.66
2024-02-26T22:42:14.673Z,27.66
2024-02-26T22:45:03.617Z,27.67
2024-02-26T22:47:51.601Z,27.75
2024-02-26T22:50:39.323Z,27.85
2024-02-26T22:53:27.085Z,27.73
2024-02-26T22:56:14.814Z,27.56
2024-02-26T22:59:05.918Z,27.78
2024-02-26T23:01:53.702Z,27.58
2024-02-26T23:04:42.289Z,27.66
2024-02-26T23:07:29.917Z,27.64
2024-02-26T23:10:17.802Z,27.59
2024-02-26T23:13:06.470Z,27.64
2024-02-26T23:15:55.386Z,27.61
2024-02-26T23:18:43.409Z,27.80
2024-02-26T23:21:31.229Z,27.71
2024-02-26T23:24:18.843Z,27.68
2024-02-26T23:27:06.564Z,27.50
2024-02-26T23:29:54.230Z,27.56
2024-02-26T23:32:42.005Z,27.67
2024-02-26T23:35:29.653Z,27.74
2024-02-26T23:38:17.517Z,27.58
2024-02-26T23:41:05.182Z,27.37
2024-02-26T23:43:52.719Z,27.53
2024-02-26T23:46:40.392Z,27.28
2024-02-26T23:49:28.571Z,27.29
2024-02-26T23:52:17.343Z,27.25
2024-02-26T23:55:05.135Z,27.15
2024-02-26T23:57:52.918Z,27.33
